createdAt,value
2023-10-20T00:00:47.912Z,98279.81
2023-10-20T00:03:50.994Z,98282.50
2023-10-20T00:06:52.708Z,98273.56
2023-10-20T00:09:54.379Z,98273.09
2023-10-20T00:12:56.052Z,98279.72
2023-10-20T00:15:57.882Z,98271.94
2023-10-20T00:19:00.972Z,98265.03
2023-10-20T00:22:02.675Z,98262.34
2023-10-20T00:25:04.898Z,98258.03
2023-10-20T00:28:06.838Z,98255.84
2023-10-20T00:31:08.561Z,98253.34
2023-10-20T00:34:11.650Z,98252.97
2023-10-20T00:37:13.360Z,98242.03
2023-10-20T00:40:15.576Z,98242.16
2023-10-20T00:43:17.371Z,98235.72
2023-10-20T00:46:19.642Z,98236.66
2023-10-20T00:49:22.989Z,98232.25
2023-10-20T00:52:24.647Z,98234.84
2023-10-20T00:55:26.452Z,98235.91
2023-10-20T00:58:29.644Z,98224.31
2023-10-20T01:01:32.184Z,98226.88
2023-10-20T01:04:35.404Z,98212.91
2023-10-20T01:07:37.133Z,98220.28
2023-10-20T01:10:38.792Z,98211.66
2023-10-20T01:13:40.489Z,98210.78
2023-10-20T01:16:42.211Z,98214.78
2023-10-20T01:19:45.317Z,98204.44
2023-10-20T01:22:47.016Z,98197.94
2023-10-20T01:25:50.127Z,98190.94
2023-10-20T01:28:51.823Z,98194.00
2023-10-20T01:31:53.514Z,98196.00
2023-10-20T01:34:55.189Z,98172.53
2023-10-20T01:37:56.912Z,98169.75
2023-10-20T01:41:00.015Z,98165.84
2023-10-20T01:44:01.795Z,98165.44
2023-10-20T01:47:03.625Z,98164.56
2023-10-20T01:50:06.139Z,98174.63
2023-10-20T01:53:07.980Z,98181.63
2023-10-20T01:56:11.164Z,98184.69
2023-10-20T01:59:12.894Z,98169.88
2023-10-20T02:02:14.660Z,98166.97
2023-10-20T02:05:16.649Z,98168.69
2023-10-20T02:08:18.519Z,98158.06
2023-10-20T02:11:21.670Z,98146.75
2023-10-20T02:14:23.387Z,98149.44
2023-10-20T02:17:25.269Z,98147.72
2023-10-20T02:20:27.011Z,98144.56
2023-10-20T02:23:28.717Z,98145.50
2023-10-20T02:26:31.877Z,98150.97
2023-10-20T02:29:33.685Z,98148.69
2023-10-20T02:32:35.482Z,98145.22
2023-10-20T02:35:41.053Z,98136.78
2023-10-20T02:38:42.810Z,98137.84
2023-10-20T02:41:45.905Z,98146.16
2023-10-20T02:44:47.569Z,98137.63
2023-10-20T02:47:51.634Z,98140.66
2023-10-20T02:50:53.528Z,98145.94
2023-10-20T02:53:55.237Z,98136.53
2023-10-20T02:56:58.304Z,98131.38
2023-10-20T03:00:00.022Z,98130.41
2023-10-20T03:03:01.783Z,98137.56
2023-10-20T03:06:04.925Z,98149.81
2023-10-20T03:09:06.579Z,98143.38
2023-10-20T03:12:09.608Z,98137.69
2023-10-20T03:15:11.497Z,98141.44
2023-10-20T03:18:13.188Z,98121.28
2023-10-20T03:21:14.898Z,98127.25
2023-10-20T03:24:16.596Z,98133.19
2023-10-20T03:27:19.770Z,98128.88
2023-10-20T03:30:21.493Z,98127.06
2023-10-20T03:33:23.293Z,98122.34
2023-10-20T03:36:25.103Z,98116.03
2023-10-20T03:39:26.783Z,98131.28
2023-10-20T03:42:29.821Z,98121.19
2023-10-20T03:45:31.570Z,98118.13
2023-10-20T03:48:33.502Z,98114.13
2023-10-20T03:51:35.153Z,98103.25
2023-10-20T03:54:36.864Z,98104.13
2023-10-20T03:57:39.982Z,98107.88
2023-10-20T04:00:41.687Z,98110.56
2023-10-20T04:03:43.449Z,98113.06
2023-10-20T04:06:45.371Z,98122.72
2023-10-20T04:09:47.103Z,98128.38
2023-10-20T04:12:50.203Z,98119.19
2023-10-20T04:15:52.132Z,98111.72
2023-10-20T04:18:53.816Z,98110.88
2023-10-20T04:21:55.503Z,98111.81
2023-10-20T04:24:57.202Z,98104.44
2023-10-20T04:28:00.575Z,98107.78
2023-10-20T04:31:02.069Z,98093.44
2023-10-20T04:34:03.793Z,98087.50
2023-10-20T04:37:07.188Z,98096.47
2023-10-20T04:40:11.628Z,98083.34
2023-10-20T04:43:14.872Z,98085.00
2023-10-20T04:46:16.539Z,98088.44
2023-10-20T04:49:18.248Z,98092.66
2023-10-20T04:52:19.987Z,98099.75
2023-10-20T04:55:21.738Z,98093.53
2023-10-20T04:58:24.786Z,98092.38
2023-10-20T05:01:26.523Z,98101.53
2023-10-20T05:04:28.847Z,98095.56
2023-10-20T05:07:30.522Z,98095.06
2023-10-20T05:10:33.044Z,98096.59
2023-10-20T05:13:36.205Z,98101.19
2023-10-20T05:16:37.920Z,98102.03
2023-10-20T05:19:40.333Z,98100.09
2023-10-20T05:22:42.295Z,98100.03
2023-10-20T05:25:47.659Z,98107.78
2023-10-20T05:28:50.697Z,98114.75
2023-10-20T05:31:52.388Z,98113.03
2023-10-20T05:34:54.077Z,98113.22
2023-10-20T05:37:55.792Z,98113.03
2023-10-20T05:40:58.373Z,98110.34
2023-10-20T05:44:01.445Z,98103.28
2023-10-20T05:47:03.138Z,98111.88
2023-10-20T05:50:05.792Z,98107.16
2023-10-20T05:53:07.697Z,98105.56
2023-10-20T05:56:11.440Z,98105.56
2023-10-20T05:59:14.820Z,98098.28
2023-10-20T06:02:16.574Z,98106.34
2023-10-20T06:05:18.307Z,98117.81
2023-10-20T06:08:20.057Z,98117.81
2023-10-20T06:11:21.816Z,98122.22
2023-10-20T06:14:24.946Z,98126.53
2023-10-20T06:17:26.846Z,98136.19
2023-10-20T06:20:28.632Z,98126.72
2023-10-20T06:23:30.361Z,98126.72
2023-10-20T06:26:32.098Z,98117.31
2023-10-20T06:29:35.340Z,98118.84
2023-10-20T06:32:37.037Z,98112.41
2023-10-20T06:35:38.834Z,98108.47
2023-10-20T06:38:40.580Z,98113.63
2023-10-20T06:41:42.554Z,98104.78
2023-10-20T06:44:45.685Z,98110.78
2023-10-20T06:47:47.510Z,98114.69
2023-10-20T06:50:49.447Z,98111.69
2023-10-20T06:53:52.774Z,98111.38
2023-10-20T06:56:56.521Z,98111.28
2023-10-20T06:59:59.562Z,98103.97
2023-10-20T07:03:01.360Z,98098.22
2023-10-20T07:06:03.532Z,98107.81
2023-10-20T07:09:05.470Z,98088.00
2023-10-20T07:12:08.903Z,98085.88
2023-10-20T07:15:13.512Z,98089.56
2023-10-20T07:18:15.309Z,98083.44
2023-10-20T07:21:17.017Z,98086.25
2023-10-20T07:24:18.701Z,98080.00
2023-10-20T07:27:20.424Z,98078.09
2023-10-20T07:30:23.639Z,98079.38
2023-10-20T07:33:25.369Z,98081.06
2023-10-20T07:36:27.049Z,98089.22
2023-10-20T07:39:28.742Z,98094.72
2023-10-20T07:42:30.448Z,98081.59
2023-10-20T07:45:38.441Z,98077.13
2023-10-20T07:48:40.378Z,98081.34
2023-10-20T07:51:42.110Z,98077.28
2023-10-20T07:54:43.769Z,98074.31
2023-10-20T07:57:45.432Z,98079.88
2023-10-20T08:00:48.442Z,98073.59
2023-10-20T08:03:50.484Z,98082.19
2023-10-20T08:06:52.455Z,98073.66
2023-10-20T08:09:54.355Z,98081.25
2023-10-20T08:12:56.101Z,98076.41
2023-10-20T08:16:02.206Z,98073.31
2023-10-20T08:19:04.175Z,98068.69
2023-10-20T08:22:05.832Z,98071.25
2023-10-20T08:25:08.765Z,98074.81
2023-10-20T08:28:10.448Z,98082.91
2023-10-20T08:31:13.622Z,98083.50
2023-10-20T08:34:15.303Z,98076.44
2023-10-20T08:37:17.177Z,98068.19
2023-10-20T08:40:19.027Z,98057.81
2023-10-20T08:43:20.977Z,98082.72
2023-10-20T08:46:24.168Z,98085.69
2023-10-20T08:49:26.347Z,98090.34
2023-10-20T08:52:28.712Z,98097.84
2023-10-20T08:55:30.359Z,98080.94
2023-10-20T08:58:32.499Z,98083.19
2023-10-20T09:01:36.355Z,98083.44
2023-10-20T09:04:38.162Z,98088.47
2023-10-20T09:07:39.960Z,98081.97
2023-10-20T09:10:43.558Z,98092.13
2023-10-20T09:13:47.713Z,98081.09
2023-10-20T09:16:51.364Z,98081.97
2023-10-20T09:19:53.021Z,98080.38
2023-10-20T09:22:54.762Z,98074.38
2023-10-20T09:25:56.417Z,98068.59
2023-10-20T09:29:01.625Z,98066.97
2023-10-20T09:32:05.065Z,98075.69
2023-10-20T09:35:07.719Z,98073.59
2023-10-20T09:38:11.375Z,98058.97
2023-10-20T09:41:14.517Z,98061.63
2023-10-20T09:44:22.325Z,98051.63
2023-10-20T09:47:29.520Z,98050.34
2023-10-20T09:50:33.078Z,98050.00
2023-10-20T09:53:34.902Z,98059.66
2023-10-20T09:56:37.105Z,98048.38
2023-10-20T09:59:39.785Z,98043.50
2023-10-20T10:02:42.994Z,98047.78
2023-10-20T10:05:46.955Z,98029.00
2023-10-20T10:08:49.041Z,98035.91
2023-10-20T10:11:55.715Z,98032.69
2023-10-20T10:14:58.591Z,98022.28
2023-10-20T10:18:09.100Z,98014.50
2023-10-20T10:21:10.896Z,98020.19
2023-10-20T10:24:14.274Z,98015.50
2023-10-20T10:27:16.533Z,98012.94
2023-10-20T10:30:27.401Z,98010.66
2023-10-20T10:33:30.543Z,98026.22
2023-10-20T10:36:42.927Z,98022.06
2023-10-20T10:39:44.667Z,98024.19
2023-10-20T10:42:47.799Z,98016.19
2023-10-20T10:45:53.767Z,98005.94
2023-10-20T10:49:07.593Z,98005.47
2023-10-20T10:52:09.294Z,98008.03
2023-10-20T10:55:11.000Z,97999.78
2023-10-20T10:58:13.838Z,97997.19
2023-10-20T11:01:15.658Z,98002.91
2023-10-20T11:04:19.314Z,98015.59
2023-10-20T11:07:21.360Z,98016.06
2023-10-20T11:10:25.425Z,98019.03
2023-10-20T11:13:28.527Z,98005.16
2023-10-20T11:16:30.112Z,97997.09
2023-10-20T11:19:33.528Z,97983.06
2023-10-20T11:22:38.239Z,97986.34
2023-10-20T11:25:40.482Z,97990.13
2023-10-20T11:28:42.173Z,97992.09
2023-10-20T11:31:43.847Z,97988.53
2023-10-20T11:34:46.953Z,97983.38
2023-10-20T11:37:49.013Z,97974.44
2023-10-20T11:40:51.050Z,97972.38
2023-10-20T11:43:52.977Z,97964.97
2023-10-20T11:46:55.075Z,97950.81
2023-10-20T11:49:58.068Z,97947.22
2023-10-20T11:52:59.549Z,97942.91
2023-10-20T11:56:01.236Z,97935.22
2023-10-20T11:59:02.904Z,97956.44
2023-10-20T12:02:04.594Z,97954.81
2023-10-20T12:05:08.755Z,97952.09
2023-10-20T12:08:10.470Z,97943.84
2023-10-20T12:11:12.233Z,97940.41
2023-10-20T12:14:13.924Z,97925.59
2023-10-20T12:17:15.775Z,97914.72
2023-10-20T12:20:18.940Z,97927.53
2023-10-20T12:23:20.665Z,97922.31
2023-10-20T12:26:22.441Z,97919.13
2023-10-20T12:29:24.278Z,97914.94
2023-10-20T12:32:26.093Z,97918.13
2023-10-20T12:35:29.347Z,97930.59
2023-10-20T12:38:32.074Z,97935.50
2023-10-20T12:41:33.951Z,97925.19
2023-10-20T12:44:36.226Z,97936.22
2023-10-20T12:47:38.390Z,97930.50
2023-10-20T12:50:41.559Z,97928.41
2023-10-20T12:53:43.352Z,97917.00
2023-10-20T12:56:45.117Z,97932.50
2023-10-20T12:59:46.928Z,97936.97
2023-10-20T13:02:48.727Z,97932.97
2023-10-20T13:05:51.949Z,97925.13
2023-10-20T13:08:53.706Z,97933.72
2023-10-20T13:11:55.589Z,97918.03
2023-10-20T13:14:57.308Z,97908.03
2023-10-20T13:17:59.212Z,97911.44
2023-10-20T13:21:04.531Z,97913.75
2023-10-20T13:24:07.026Z,97925.75
2023-10-20T13:27:08.709Z,97926.75
2023-10-20T13:30:11.007Z,97927.78
2023-10-20T13:33:12.798Z,97918.94
2023-10-20T13:36:18.229Z,97920.91
2023-10-20T13:42:32.405Z,97930.19
2023-10-20T13:45:34.093Z,97926.47
2023-10-20T13:48:35.875Z,97929.06
2023-10-20T13:51:38.968Z,97934.59
2023-10-20T13:54:40.474Z,97928.63
2023-10-20T13:57:42.158Z,97919.06
2023-10-20T14:00:44.001Z,97910.94
2023-10-20T14:03:45.997Z,97905.81
2023-10-20T14:06:49.170Z,97907.69
2023-10-20T14:09:50.694Z,97900.25
2023-10-20T14:12:52.343Z,97906.84
2023-10-20T14:15:54.059Z,97910.84
2023-10-20T14:18:55.773Z,97899.28
2023-10-20T14:21:58.897Z,97906.72
2023-10-20T14:25:00.566Z,97897.00
2023-10-20T14:28:02.259Z,97899.44
2023-10-20T14:31:05.106Z,97912.72
2023-10-20T14:34:06.800Z,97913.25
2023-10-20T14:37:09.868Z,97903.97
2023-10-20T14:40:11.894Z,97915.28
2023-10-20T14:43:13.680Z,97908.25
2023-10-20T14:46:15.387Z,97910.84
2023-10-20T14:49:17.121Z,97918.56
2023-10-20T14:52:20.246Z,97900.56
2023-10-20T14:55:21.747Z,97920.56
2023-10-20T14:58:23.400Z,97921.56
2023-10-20T15:01:25.135Z,97912.56
2023-10-20T15:04:30.821Z,97917.88
2023-10-20T15:07:34.291Z,97925.84
2023-10-20T15:10:36.133Z,97921.13
2023-10-20T15:13:37.797Z,97921.81
2023-10-20T15:16:39.528Z,97925.97
2023-10-20T15:19:41.278Z,97926.25
2023-10-20T15:22:44.344Z,97921.41
2023-10-20T15:25:46.405Z,97909.25
2023-10-20T15:28:48.268Z,97919.84
2023-10-20T15:31:50.062Z,97923.41
2023-10-20T15:34:51.865Z,97914.69
2023-10-20T15:37:54.905Z,97916.84
2023-10-20T15:40:57.757Z,97926.56
2023-10-20T15:43:59.436Z,97922.25
2023-10-20T15:47:01.137Z,97936.25
2023-10-20T15:50:02.878Z,97931.56
2023-10-20T15:53:05.973Z,97940.81
2023-10-20T15:56:07.465Z,97931.97
2023-10-20T15:59:09.189Z,97931.69
2023-10-20T16:02:10.881Z,97937.13
2023-10-20T16:05:12.658Z,97953.94
2023-10-20T16:08:15.655Z,97945.25
2023-10-20T16:11:17.363Z,97942.53
2023-10-20T16:14:19.122Z,97945.94
2023-10-20T16:17:20.783Z,97945.53
2023-10-20T16:20:22.794Z,97951.81
2023-10-20T16:23:25.896Z,97954.50
2023-10-20T16:26:27.444Z,97939.81
2023-10-20T16:29:29.169Z,97944.81
2023-10-20T16:32:31.266Z,97948.25
2023-10-20T16:35:33.127Z,97954.81
2023-10-20T16:38:36.573Z,97965.25
2023-10-20T16:41:38.560Z,97958.13
2023-10-20T16:44:40.640Z,97968.84
2023-10-20T16:47:42.537Z,97974.81
2023-10-20T16:50:44.836Z,97980.81
2023-10-20T16:53:48.413Z,97974.13
2023-10-20T16:56:52.576Z,97985.97
2023-10-20T16:59:54.396Z,98002.94
2023-10-20T17:02:56.331Z,97996.22
2023-10-20T17:05:58.710Z,97996.50
2023-10-20T17:09:02.385Z,97997.38
2023-10-20T17:12:05.592Z,98002.91
2023-10-20T17:15:07.990Z,97994.75
2023-10-20T17:18:10.257Z,98010.66
2023-10-20T17:21:12.527Z,97998.94
2023-10-20T17:24:16.204Z,97991.94
2023-10-20T17:27:19.012Z,97988.47
2023-10-20T17:30:20.854Z,98002.59
2023-10-20T17:33:23.110Z,97991.19
2023-10-20T17:36:25.932Z,97990.50
2023-10-20T17:39:29.770Z,97994.63
2023-10-20T17:42:32.148Z,98002.31
2023-10-20T17:45:38.733Z,97998.75
2023-10-20T17:48:41.558Z,98004.19
2023-10-20T17:51:43.541Z,98002.16
2023-10-20T17:54:47.345Z,98006.72
2023-10-20T17:57:50.050Z,97994.03
2023-10-20T18:00:52.303Z,97989.31
2023-10-20T18:03:54.408Z,97988.88
2023-10-20T18:06:56.686Z,98003.69
2023-10-20T18:10:00.751Z,98007.09
2023-10-20T18:13:03.690Z,98006.69
2023-10-20T18:16:05.465Z,98023.22
2023-10-20T18:19:08.150Z,98015.22
2023-10-20T18:22:11.032Z,98033.88
2023-10-20T18:25:16.768Z,98035.56
2023-10-20T18:28:19.922Z,98041.28
2023-10-20T18:31:22.258Z,98034.69
2023-10-20T18:34:24.123Z,98038.34
2023-10-20T18:37:28.040Z,98036.16
2023-10-20T18:40:35.029Z,98039.81
2023-10-20T18:43:39.023Z,98046.16
2023-10-20T18:46:42.216Z,98058.81
2023-10-20T18:49:45.456Z,98065.84
2023-10-20T18:52:47.922Z,98067.38
2023-10-20T18:55:52.411Z,98076.00
2023-10-20T18:58:55.375Z,98077.00
2023-10-20T19:02:00.889Z,98085.13
2023-10-20T19:05:04.379Z,98081.84
2023-10-20T19:08:10.742Z,98068.81
2023-10-20T19:11:15.390Z,98080.22
2023-10-20T19:14:20.232Z,98076.41
2023-10-20T19:17:23.498Z,98089.09
2023-10-20T19:20:26.847Z,98079.13
2023-10-20T19:23:30.503Z,98086.50
2023-10-20T19:26:37.731Z,98105.16
2023-10-20T19:29:40.737Z,98095.94
2023-10-20T19:32:42.572Z,98099.25
2023-10-20T19:35:44.602Z,98102.53
2023-10-20T19:38:47.530Z,98104.78
2023-10-20T19:41:52.085Z,98119.94
2023-10-20T19:44:56.672Z,98110.75
2023-10-20T19:48:00.421Z,98119.72
2023-10-20T19:51:02.941Z,98113.38
2023-10-20T19:54:08.627Z,98112.06
2023-10-20T19:57:13.420Z,98105.31
2023-10-20T20:00:16.107Z,98112.56
2023-10-20T20:03:18.575Z,98106.66
2023-10-20T20:06:20.956Z,98108.78
2023-10-20T20:09:23.522Z,98123.03
2023-10-20T20:12:27.135Z,98132.88
2023-10-20T20:15:28.880Z,98129.31
2023-10-20T20:18:32.557Z,98124.88
2023-10-20T20:21:34.333Z,98124.38
2023-10-20T20:24:36.460Z,98134.81
2023-10-20T20:27:40.060Z,98132.50
2023-10-20T20:30:42.066Z,98137.19
2023-10-20T20:33:43.843Z,98143.19
2023-10-20T20:36:45.794Z,98139.72
2023-10-20T20:39:47.498Z,98133.97
2023-10-20T20:42:50.670Z,98141.75
2023-10-20T20:45:52.692Z,98145.78
2023-10-20T20:48:54.501Z,98144.06
2023-10-20T20:51:56.222Z,98141.75
2023-10-20T20:54:57.947Z,98135.22
2023-10-20T20:58:01.029Z,98143.22
2023-10-20T21:01:08.733Z,98127.63
2023-10-20T21:04:10.850Z,98127.22
2023-10-20T21:07:12.657Z,98130.56
2023-10-20T21:10:14.451Z,98131.56
2023-10-20T21:13:17.517Z,98149.75
2023-10-20T21:16:19.213Z,98145.66
2023-10-20T21:19:20.922Z,98144.94
2023-10-20T21:22:22.715Z,98157.59
2023-10-20T21:25:24.423Z,98152.19
2023-10-20T21:28:27.504Z,98167.41
2023-10-20T21:31:29.086Z,98167.50
2023-10-20T21:34:30.764Z,98161.72
2023-10-20T21:37:32.459Z,98167.56
2023-10-20T21:40:34.192Z,98163.63
2023-10-20T21:43:37.303Z,98169.63
2023-10-20T21:46:38.946Z,98179.06
2023-10-20T21:49:40.690Z,98174.41
2023-10-20T21:52:42.928Z,98171.75
2023-10-20T21:55:44.578Z,98164.63
2023-10-20T21:58:47.669Z,98160.34
2023-10-20T22:02:08.290Z,98171.25
2023-10-20T22:05:11.164Z,98173.81
2023-10-20T22:08:12.834Z,98173.81
2023-10-20T22:11:14.532Z,98172.25
2023-10-20T22:14:17.594Z,98180.34
2023-10-20T22:17:19.281Z,98179.06
2023-10-20T22:20:20.950Z,98179.38
2023-10-20T22:23:22.671Z,98181.59
2023-10-20T22:26:24.375Z,98179.66
2023-10-20T22:29:27.418Z,98179.91
2023-10-20T22:32:29.164Z,98167.47
2023-10-20T22:35:30.859Z,98179.16
2023-10-20T22:38:32.724Z,98182.16
2023-10-20T22:41:34.504Z,98183.88
2023-10-20T22:44:37.616Z,98186.97
2023-10-20T22:47:39.174Z,98194.59
2023-10-20T22:50:42.494Z,98192.16
2023-10-20T22:53:44.203Z,98192.41
2023-10-20T22:56:45.975Z,98192.28
2023-10-20T22:59:49.136Z,98197.94
2023-10-20T23:02:50.741Z,98185.28
2023-10-20T23:05:52.562Z,98193.56
2023-10-20T23:08:54.327Z,98195.88
2023-10-20T23:11:56.090Z,98200.47
2023-10-20T23:14:59.399Z,98198.00
2023-10-20T23:18:01.252Z,98198.53
2023-10-20T23:21:03.137Z,98204.66
2023-10-20T23:24:05.561Z,98201.81
2023-10-20T23:27:07.391Z,98209.34
2023-10-20T23:30:11.984Z,98202.09
2023-10-20T23:33:14.024Z,98213.63
2023-10-20T23:36:15.795Z,98219.16
2023-10-20T23:39:17.516Z,98209.06
2023-10-20T23:42:19.229Z,98215.19
2023-10-20T23:45:22.428Z,98215.56
2023-10-20T23:48:24.035Z,98218.00
2023-10-20T23:51:25.772Z,98219.25
2023-10-20T23:54:27.442Z,98216.78
2023-10-20T23:57:29.074Z,98218.56
